createdAt,value
2022-10-21T00:00:33.403Z,95018.38
2022-10-21T00:03:00.038Z,95012.69
2022-10-21T00:05:26.732Z,94997.31
2022-10-21T00:07:53.291Z,94992.16
2022-10-21T00:10:20.105Z,94990.38
2022-10-21T00:12:46.692Z,94984.03
2022-10-21T00:15:13.579Z,94983.56
2022-10-21T00:17:43.016Z,94991.84
2022-10-21T00:20:12.565Z,94993.31
2022-10-21T00:22:39.514Z,94984.72
2022-10-21T00:25:06.790Z,94991.19
2022-10-21T00:27:33.409Z,94990.88
2022-10-21T00:30:00.045Z,94993.94
2022-10-21T00:32:26.686Z,94992.16
2022-10-21T00:34:53.375Z,95000.09
2022-10-21T00:37:19.947Z,94995.53
2022-10-21T00:39:46.551Z,94989.88
2022-10-21T00:42:20.216Z,94986.81
2022-10-21T00:45:04.805Z,94987.81
2022-10-21T00:47:38.020Z,94989.91
2022-10-21T00:50:05.391Z,94986.81
2022-10-21T00:52:34.021Z,94980.50
2022-10-21T00:55:04.366Z,94979.06
2022-10-21T00:57:34.606Z,94981.50
2022-10-21T01:00:02.393Z,94980.03
2022-10-21T01:02:30.138Z,94986.00
2022-10-21T01:05:01.065Z,94989.56
2022-10-21T01:07:27.732Z,94999.44
2022-10-21T01:09:54.321Z,94992.47
2022-10-21T01:12:50.298Z,94986.16
2022-10-21T01:15:31.466Z,94975.34
2022-10-21T01:18:56.512Z,94981.66
2022-10-21T01:21:23.011Z,94972.09
2022-10-21T01:24:09.625Z,94965.16
2022-10-21T01:26:57.725Z,94953.34
2022-10-21T01:29:35.928Z,94960.78
2022-10-21T01:32:20.703Z,94960.78
2022-10-21T01:35:19.417Z,94955.75
2022-10-21T01:37:58.129Z,94950.09
2022-10-21T01:40:37.354Z,94948.66
2022-10-21T01:43:18.817Z,94944.75
2022-10-21T01:45:54.716Z,94938.63
2022-10-21T01:48:26.893Z,94942.34
2022-10-21T01:50:58.580Z,94939.28
2022-10-21T01:53:30.077Z,94932.31
2022-10-21T01:56:01.286Z,94930.56
2022-10-21T01:58:33.434Z,94921.81
2022-10-21T02:01:03.289Z,94923.75
2022-10-21T02:03:33.964Z,94918.09
2022-10-21T02:06:00.608Z,94912.09
2022-10-21T02:08:27.673Z,94912.75
2022-10-21T02:11:07.550Z,94904.81
2022-10-21T02:13:40.122Z,94901.94
2022-10-21T02:16:10.680Z,94906.78
2022-10-21T02:18:37.236Z,94908.06
2022-10-21T02:21:08.700Z,94902.72
2022-10-21T02:23:53.745Z,94896.91
2022-10-21T02:26:25.920Z,94892.56
2022-10-21T02:28:54.056Z,94878.63
2022-10-21T02:31:44.651Z,94886.75
2022-10-21T02:34:21.289Z,94889.63
2022-10-21T02:36:50.910Z,94886.25
2022-10-21T02:39:26.398Z,94877.34
2022-10-21T02:41:55.741Z,94871.53
2022-10-21T02:44:22.883Z,94871.69
2022-10-21T02:46:50.176Z,94865.69
2022-10-21T02:49:16.730Z,94859.53
2022-10-21T02:51:44.058Z,94849.84
2022-10-21T02:54:10.646Z,94849.19
2022-10-21T02:56:37.181Z,94856.16
2022-10-21T02:59:03.793Z,94865.06
2022-10-21T03:01:30.433Z,94872.81
2022-10-21T03:03:57.092Z,94870.88
2022-10-21T03:06:23.705Z,94869.44
2022-10-21T03:08:50.318Z,94871.69
2022-10-21T03:11:16.900Z,94870.22
2022-10-21T03:13:43.474Z,94870.72
2022-10-21T03:16:10.128Z,94878.63
2022-10-21T03:18:36.679Z,94872.03
2022-10-21T03:21:03.499Z,94864.75
2022-10-21T03:23:30.020Z,94855.06
2022-10-21T03:25:56.584Z,94852.28
2022-10-21T03:28:23.153Z,94862.00
2022-10-21T03:30:49.682Z,94855.53
2022-10-21T03:33:16.242Z,94870.75
2022-10-21T03:35:42.840Z,94877.50
2022-10-21T03:38:09.420Z,94878.81
2022-10-21T03:40:35.980Z,94875.09
2022-10-21T03:43:02.542Z,94867.81
2022-10-21T03:45:29.109Z,94860.53
2022-10-21T03:47:55.811Z,94851.66
2022-10-21T03:50:26.174Z,94837.72
2022-10-21T03:52:53.503Z,94833.19
2022-10-21T03:55:21.110Z,94821.25
2022-10-21T03:57:48.226Z,94817.66
2022-10-21T04:00:15.269Z,94823.66
2022-10-21T04:02:41.851Z,94820.91
2022-10-21T04:05:09.131Z,94811.38
2022-10-21T04:07:35.754Z,94803.44
2022-10-21T04:10:02.645Z,94794.06
2022-10-21T04:12:29.304Z,94792.44
2022-10-21T04:14:55.912Z,94786.63
2022-10-21T04:17:22.496Z,94783.56
2022-10-21T04:19:49.022Z,94788.75
2022-10-21T04:22:15.575Z,94786.00
2022-10-21T04:24:42.265Z,94780.19
2022-10-21T04:27:08.838Z,94778.75
2022-10-21T04:29:35.381Z,94777.13
2022-10-21T04:32:01.955Z,94759.19
2022-10-21T04:34:28.570Z,94757.25
2022-10-21T04:36:55.177Z,94746.44
2022-10-21T04:39:21.754Z,94744.34
2022-10-21T04:41:50.583Z,94736.41
2022-10-21T04:44:17.132Z,94740.94
2022-10-21T04:46:43.755Z,94729.81
2022-10-21T04:49:10.415Z,94725.13
2022-10-21T04:51:36.973Z,94729.97
2022-10-21T04:54:03.633Z,94738.69
2022-10-21T04:56:30.279Z,94725.00
2022-10-21T04:58:56.814Z,94720.63
2022-10-21T05:01:23.421Z,94715.78
2022-10-21T05:03:49.988Z,94721.09
2022-10-21T05:06:16.536Z,94711.25
2022-10-21T05:08:43.151Z,94705.13
2022-10-21T05:11:09.797Z,94709.78
2022-10-21T05:13:36.353Z,94705.78
2022-10-21T05:16:04.515Z,94707.53
2022-10-21T05:18:31.595Z,94707.38
2022-10-21T05:20:59.091Z,94715.28
2022-10-21T05:23:26.901Z,94718.66
2022-10-21T05:25:53.920Z,94723.69
2022-10-21T05:28:21.455Z,94722.72
2022-10-21T05:30:48.110Z,94713.34
2022-10-21T05:33:15.552Z,94720.13
2022-10-21T05:35:42.196Z,94710.91
2022-10-21T05:38:08.862Z,94707.38
2022-10-21T05:40:35.467Z,94702.22
2022-10-21T05:43:02.041Z,94703.81
2022-10-21T05:45:28.660Z,94692.50
2022-10-21T05:47:55.364Z,94688.28
2022-10-21T05:50:21.970Z,94698.63
2022-10-21T05:52:48.536Z,94708.03
2022-10-21T05:55:15.158Z,94710.75
2022-10-21T05:57:41.787Z,94700.25
2022-10-21T06:00:09.272Z,94704.78
2022-10-21T06:02:36.350Z,94707.69
2022-10-21T06:05:03.549Z,94717.22
2022-10-21T06:07:30.142Z,94720.94
2022-10-21T06:09:56.698Z,94712.84
2022-10-21T06:12:23.371Z,94708.97
2022-10-21T06:14:49.909Z,94712.66
2022-10-21T06:17:16.502Z,94726.41
2022-10-21T06:19:45.951Z,94723.97
2022-10-21T06:22:15.708Z,94719.25
2022-10-21T06:24:42.280Z,94718.59
2022-10-21T06:27:08.938Z,94708.25
2022-10-21T06:29:35.504Z,94699.59
2022-10-21T06:32:02.495Z,94693.75
2022-10-21T06:34:29.052Z,94686.63
2022-10-21T06:36:55.675Z,94688.22
2022-10-21T06:39:25.217Z,94689.53
2022-10-21T06:41:51.883Z,94674.13
2022-10-21T06:44:38.366Z,94681.28
2022-10-21T06:47:04.979Z,94684.81
2022-10-21T06:49:31.759Z,94686.91
2022-10-21T06:51:58.336Z,94679.63
2022-10-21T06:54:26.485Z,94673.28
2022-10-21T06:56:53.085Z,94674.28
2022-10-21T06:59:19.739Z,94671.34
2022-10-21T07:01:59.732Z,94676.66
2022-10-21T07:04:27.089Z,94677.66
2022-10-21T07:06:53.727Z,94676.16
2022-10-21T07:09:20.371Z,94676.94
2022-10-21T07:11:47.102Z,94677.91
2022-10-21T07:14:13.723Z,94682.38
2022-10-21T07:16:40.368Z,94674.13
2022-10-21T07:19:07.210Z,94668.44
2022-10-21T07:21:34.070Z,94660.00
2022-10-21T07:24:01.783Z,94654.66
2022-10-21T07:26:30.225Z,94652.06
2022-10-21T07:28:58.792Z,94644.84
2022-10-21T07:31:25.848Z,94637.22
2022-10-21T07:33:52.800Z,94635.09
2022-10-21T07:36:22.971Z,94643.63
2022-10-21T07:38:50.968Z,94642.28
2022-10-21T07:41:24.404Z,94638.03
2022-10-21T07:43:52.090Z,94635.53
2022-10-21T07:46:20.828Z,94637.72
2022-10-21T07:48:48.154Z,94637.78
2022-10-21T07:51:18.213Z,94646.81
2022-10-21T07:53:44.878Z,94644.50
2022-10-21T07:56:15.347Z,94633.72
2022-10-21T07:58:43.109Z,94634.41
2022-10-21T08:01:11.493Z,94635.84
2022-10-21T08:03:38.898Z,94637.19
2022-10-21T08:06:07.420Z,94631.22
2022-10-21T08:08:35.317Z,94635.69
2022-10-21T08:11:02.689Z,94627.28
2022-10-21T08:13:31.507Z,94623.41
2022-10-21T08:15:59.166Z,94632.06
2022-10-21T08:18:26.379Z,94636.25
2022-10-21T08:20:53.724Z,94641.28
2022-10-21T08:23:22.064Z,94640.84
2022-10-21T08:25:49.398Z,94645.91
2022-10-21T08:28:17.019Z,94651.63
2022-10-21T08:30:44.486Z,94648.50
2022-10-21T08:33:12.116Z,94656.91
2022-10-21T08:35:39.959Z,94657.44
2022-10-21T08:40:42.163Z,94648.81
2022-10-21T08:43:26.689Z,94645.66
2022-10-21T08:46:08.630Z,94655.06
2022-10-21T08:48:47.595Z,94643.69
2022-10-21T08:51:30.330Z,94645.22
2022-10-21T08:54:03.540Z,94660.25
2022-10-21T08:56:32.040Z,94664.56
2022-10-21T08:58:58.860Z,94649.72
2022-10-21T09:01:43.107Z,94655.34
2022-10-21T09:04:30.807Z,94660.00
2022-10-21T09:07:12.687Z,94656.25
2022-10-21T09:09:55.449Z,94662.44
2022-10-21T09:12:37.941Z,94680.88
2022-10-21T09:15:19.574Z,94685.94
2022-10-21T09:18:04.471Z,94721.16
2022-10-21T09:20:56.269Z,94801.72
2022-10-21T09:24:05.347Z,94804.72
2022-10-21T09:26:42.028Z,94789.69
2022-10-21T09:29:31.188Z,94840.94
2022-10-21T09:32:13.818Z,94838.97
2022-10-21T09:34:55.022Z,94830.47
2022-10-21T09:37:36.949Z,94853.84
2022-10-21T09:40:28.591Z,94825.50
2022-10-21T09:42:58.968Z,94832.66
2022-10-21T09:45:32.016Z,94846.09
2022-10-21T09:48:06.171Z,94842.97
2022-10-21T09:50:34.816Z,94840.72
2022-10-21T09:53:26.687Z,94837.03
2022-10-21T09:56:01.924Z,94847.66
2022-10-21T09:58:30.020Z,94846.00
2022-10-21T10:00:57.001Z,94864.13
2022-10-21T10:03:41.762Z,94846.13
2022-10-21T10:06:08.693Z,94848.09
2022-10-21T10:08:41.390Z,94850.13
2022-10-21T10:11:10.885Z,94859.22
2022-10-21T10:13:42.804Z,94865.34
2022-10-21T10:16:17.535Z,94866.69
2022-10-21T10:18:45.344Z,94861.03
2022-10-21T10:21:17.413Z,94848.75
2022-10-21T10:23:48.416Z,94847.94
2022-10-21T10:26:32.867Z,94863.69
2022-10-21T10:29:10.741Z,94866.91
2022-10-21T10:31:38.137Z,94855.22
2022-10-21T10:34:07.684Z,94878.38
2022-10-21T10:36:37.923Z,94884.50
2022-10-21T10:39:16.882Z,94887.84
2022-10-21T10:41:48.389Z,94880.88
2022-10-21T10:44:38.938Z,94881.31
2022-10-21T10:47:09.182Z,94897.13
2022-10-21T10:49:42.166Z,94922.09
2022-10-21T10:52:11.712Z,94911.88
2022-10-21T10:54:40.540Z,94922.00
2022-10-21T10:57:15.461Z,94927.63
2022-10-21T10:59:52.249Z,94927.28
2022-10-21T11:02:46.617Z,94920.53
2022-10-21T11:05:19.352Z,94932.66
2022-10-21T11:07:51.579Z,94941.72
2022-10-21T11:10:30.370Z,94944.41
2022-10-21T11:12:58.194Z,94950.63
2022-10-21T11:15:38.843Z,94949.50
2022-10-21T11:18:25.275Z,94948.69
2022-10-21T11:21:01.501Z,94945.81
2022-10-21T11:23:43.240Z,94945.13
2022-10-21T11:26:16.186Z,94955.91
2022-10-21T11:28:57.922Z,94955.94
2022-10-21T11:31:30.418Z,94951.00
2022-10-21T11:34:03.091Z,94944.50
2022-10-21T11:36:38.868Z,94940.13
2022-10-21T11:39:24.396Z,94932.63
2022-10-21T11:42:05.137Z,94925.34
2022-10-21T11:44:40.058Z,94921.06
2022-10-21T11:47:30.543Z,94921.75
2022-10-21T11:53:14.442Z,94919.13
2022-10-21T11:55:46.916Z,94919.66
2022-10-21T11:58:28.866Z,94915.00
2022-10-21T12:01:14.925Z,94916.06
2022-10-21T12:03:56.657Z,94915.44
2022-10-21T12:06:34.527Z,94922.31
2022-10-21T12:09:05.738Z,94920.72
2022-10-21T12:11:39.103Z,94928.53
2022-10-21T12:14:20.781Z,94928.78
2022-10-21T12:16:48.285Z,94921.78
2022-10-21T12:19:16.046Z,94915.50
2022-10-21T12:21:45.570Z,94913.78
2022-10-21T12:24:24.212Z,94909.91
2022-10-21T12:26:59.295Z,94916.50
2022-10-21T12:29:56.241Z,94916.88
2022-10-21T12:32:29.398Z,94924.69
2022-10-21T12:34:56.634Z,94920.22
2022-10-21T12:37:42.466Z,94929.78
2022-10-21T12:40:17.440Z,94931.38
2022-10-21T12:43:04.211Z,94930.19
2022-10-21T12:45:33.845Z,94927.84
2022-10-21T12:48:01.051Z,94930.19
2022-10-21T12:50:31.649Z,94925.81
2022-10-21T12:53:06.682Z,94922.28
2022-10-21T12:55:40.835Z,94924.94
2022-10-21T12:58:25.126Z,94928.97
2022-10-21T13:00:57.382Z,94927.22
2022-10-21T13:03:44.874Z,94926.53
2022-10-21T13:06:12.664Z,94929.25
2022-10-21T13:08:55.788Z,94925.59
2022-10-21T13:11:34.599Z,94932.78
2022-10-21T13:14:16.394Z,94933.31
2022-10-21T13:16:43.168Z,94942.63
2022-10-21T13:19:12.737Z,94937.72
2022-10-21T13:21:49.441Z,94939.22
2022-10-21T13:24:23.693Z,94936.63
2022-10-21T13:27:02.656Z,94938.97
2022-10-21T13:29:38.524Z,94953.94
2022-10-21T13:32:14.228Z,94949.72
2022-10-21T13:34:54.027Z,94949.16
2022-10-21T13:37:32.787Z,94941.38
2022-10-21T13:40:03.999Z,94952.41
2022-10-21T13:42:38.631Z,94947.00
2022-10-21T13:45:21.322Z,94947.91
2022-10-21T13:47:59.553Z,94947.97
2022-10-21T13:50:28.337Z,94942.69
2022-10-21T13:52:55.351Z,94937.31
2022-10-21T13:55:26.235Z,94934.91
2022-10-21T13:57:55.184Z,94934.47
2022-10-21T14:00:29.462Z,94932.13
2022-10-21T14:03:05.049Z,94925.50
2022-10-21T14:05:46.143Z,94929.34
2022-10-21T14:08:41.049Z,94929.97
2022-10-21T14:11:17.426Z,94924.34
2022-10-21T14:13:45.014Z,94924.53
2022-10-21T14:16:20.106Z,94920.66
2022-10-21T14:18:49.143Z,94921.81
2022-10-21T14:21:20.800Z,94924.50
2022-10-21T14:23:47.906Z,94925.59
2022-10-21T14:26:14.816Z,94923.69
2022-10-21T14:28:50.270Z,94930.47
2022-10-21T14:31:18.240Z,94923.63
2022-10-21T14:33:46.550Z,94923.00
2022-10-21T14:36:14.971Z,94922.56
2022-10-21T14:39:05.744Z,94916.34
2022-10-21T14:41:37.913Z,94912.34
2022-10-21T14:44:16.171Z,94922.56
2022-10-21T14:46:51.732Z,94921.47
2022-10-21T14:49:25.435Z,94933.84
2022-10-21T14:52:03.877Z,94932.44
2022-10-21T14:54:46.252Z,94924.53
2022-10-21T14:57:27.854Z,94918.25
2022-10-21T14:59:55.322Z,94924.44
2022-10-21T15:02:28.177Z,94924.53
2022-10-21T15:05:00.283Z,94930.81
2022-10-21T15:07:29.813Z,94931.63
2022-10-21T15:10:18.256Z,94926.41
2022-10-21T15:12:50.540Z,94931.50
2022-10-21T15:15:53.414Z,94931.16
2022-10-21T15:18:27.003Z,94925.78
2022-10-21T15:21:04.938Z,94936.09
2022-10-21T15:23:36.108Z,94929.91
2022-10-21T15:26:08.702Z,94925.72
2022-10-21T15:28:36.497Z,94922.00
2022-10-21T15:31:07.879Z,94922.81
2022-10-21T15:33:34.443Z,94918.97
2022-10-21T15:36:14.219Z,94927.03
2022-10-21T15:38:46.690Z,94929.09
2022-10-21T15:41:17.436Z,94926.03
2022-10-21T15:43:56.285Z,94931.69
2022-10-21T15:46:24.719Z,94928.19
2022-10-21T15:48:51.709Z,94926.91
2022-10-21T15:51:18.706Z,94927.72
2022-10-21T15:53:45.336Z,94924.19
2022-10-21T15:56:16.597Z,94920.03
2022-10-21T15:58:43.370Z,94916.53
2022-10-21T16:01:15.797Z,94916.78
2022-10-21T16:03:43.759Z,94919.03
2022-10-21T16:06:16.353Z,94917.69
2022-10-21T16:08:43.052Z,94925.72
2022-10-21T16:11:13.487Z,94925.25
2022-10-21T16:13:40.078Z,94919.31
2022-10-21T16:16:24.995Z,94927.81
2022-10-21T16:18:52.587Z,94931.38
2022-10-21T16:21:20.711Z,94932.38
2022-10-21T16:23:49.230Z,94928.31
2022-10-21T16:26:23.366Z,94933.88
2022-10-21T16:28:54.717Z,94932.53
2022-10-21T16:31:21.619Z,94936.94
2022-10-21T16:33:48.407Z,94944.41
2022-10-21T16:36:15.641Z,94948.16
2022-10-21T16:38:44.148Z,94946.03
2022-10-21T16:41:12.998Z,94951.91
2022-10-21T16:43:40.141Z,94954.94
2022-10-21T16:46:22.607Z,94943.66
2022-10-21T16:48:52.125Z,94933.47
2022-10-21T16:51:19.333Z,94931.19
2022-10-21T16:53:45.869Z,94931.53
2022-10-21T16:56:12.650Z,94939.88
2022-10-21T16:58:39.310Z,94932.63
2022-10-21T17:01:08.191Z,94926.31
2022-10-21T17:03:34.915Z,94914.50
2022-10-21T17:06:02.147Z,94909.78
2022-10-21T17:08:28.886Z,94910.13
2022-10-21T17:10:55.619Z,94908.00
2022-10-21T17:13:22.191Z,94912.72
2022-10-21T17:15:48.818Z,94919.03
2022-10-21T17:18:15.864Z,94914.53
2022-10-21T17:20:43.011Z,94922.78
2022-10-21T17:23:11.023Z,94906.44
2022-10-21T17:25:37.664Z,94909.81
2022-10-21T17:28:04.577Z,94903.31
2022-10-21T17:30:31.155Z,94904.34
2022-10-21T17:32:57.752Z,94914.59
2022-10-21T17:35:24.322Z,94909.75
2022-10-21T17:37:52.426Z,94916.69
2022-10-21T17:40:22.119Z,94927.25
2022-10-21T17:42:49.443Z,94930.72
2022-10-21T17:45:17.183Z,94922.13
2022-10-21T17:47:44.235Z,94932.78
2022-10-21T17:50:12.259Z,94932.78
2022-10-21T17:52:41.175Z,94926.97
2022-10-21T17:55:10.454Z,94923.75
2022-10-21T17:57:37.029Z,94926.16
2022-10-21T18:00:04.578Z,94923.38
2022-10-21T18:02:33.588Z,94917.88
2022-10-21T18:05:00.873Z,94912.38
2022-10-21T18:07:28.703Z,94905.22
2022-10-21T18:09:55.771Z,94901.72
2022-10-21T18:12:23.357Z,94907.41
2022-10-21T18:14:51.480Z,94902.22
2022-10-21T18:17:19.683Z,94904.47
2022-10-21T18:19:47.492Z,94905.16
2022-10-21T18:22:14.845Z,94902.22
2022-10-21T18:24:41.497Z,94896.34
2022-10-21T18:27:08.761Z,94900.31
2022-10-21T18:29:35.816Z,94899.97
2022-10-21T18:32:02.651Z,94892.63
2022-10-21T18:34:29.222Z,94886.91
2022-10-21T18:36:56.643Z,94883.31
2022-10-21T18:39:23.348Z,94880.25
2022-10-21T18:41:49.895Z,94879.75
2022-10-21T18:44:16.481Z,94872.69
2022-10-21T18:46:43.613Z,94872.97
2022-10-21T18:49:15.052Z,94875.75
2022-10-21T18:51:41.799Z,94874.56
2022-10-21T18:54:08.357Z,94879.06
2022-10-21T18:56:35.055Z,94872.94
2022-10-21T18:59:04.772Z,94860.22
2022-10-21T19:01:31.467Z,94861.38
2022-10-21T19:03:58.102Z,94868.00
2022-10-21T19:06:36.021Z,94870.59
2022-10-21T19:09:08.145Z,94868.00
2022-10-21T19:11:34.849Z,94876.78
2022-10-21T19:14:01.407Z,94868.78
2022-10-21T19:16:28.040Z,94868.78
2022-10-21T19:18:55.197Z,94872.50
2022-10-21T19:21:22.659Z,94871.28
2022-10-21T19:23:49.308Z,94877.75
2022-10-21T19:26:18.799Z,94877.06
2022-10-21T19:28:48.360Z,94875.91
2022-10-21T19:31:16.834Z,94874.31
2022-10-21T19:33:43.948Z,94869.13
2022-10-21T19:36:11.223Z,94873.59
2022-10-21T19:38:44.313Z,94884.56
2022-10-21T19:41:15.513Z,94889.84
2022-10-21T19:43:42.152Z,94890.41
2022-10-21T19:46:10.673Z,94900.09
2022-10-21T19:48:37.633Z,94886.53
2022-10-21T19:51:04.844Z,94886.41
2022-10-21T19:53:33.742Z,94881.13
2022-10-21T19:56:05.299Z,94857.03
2022-10-21T19:58:33.108Z,94855.63
2022-10-21T20:01:04.609Z,94855.56
2022-10-21T20:03:31.571Z,94838.97
2022-10-21T20:05:58.087Z,94831.72
2022-10-21T20:11:00.199Z,94827.63
2022-10-21T20:13:27.364Z,94824.22
2022-10-21T20:15:53.999Z,94826.63
2022-10-21T20:18:22.322Z,94818.84
2022-10-21T20:20:51.497Z,94821.28
2022-10-21T20:23:18.080Z,94820.09
2022-10-21T20:25:49.160Z,94819.78
2022-10-21T20:28:16.416Z,94810.66
2022-10-21T20:30:43.221Z,94816.25
2022-10-21T20:33:09.793Z,94804.16
2022-10-21T20:35:40.899Z,94810.94
2022-10-21T20:38:08.612Z,94816.13
2022-10-21T20:40:35.928Z,94817.94
2022-10-21T20:43:02.626Z,94834.66
2022-10-21T20:45:29.390Z,94841.47
2022-10-21T20:47:56.186Z,94825.63
2022-10-21T20:50:22.813Z,94826.31
2022-10-21T20:52:49.358Z,94835.63
2022-10-21T20:55:16.113Z,94825.78
2022-10-21T20:57:42.919Z,94829.38
2022-10-21T21:00:10.380Z,94832.84
2022-10-21T21:02:37.693Z,94833.25
2022-10-21T21:05:04.489Z,94837.50
2022-10-21T21:07:31.103Z,94841.03
2022-10-21T21:10:02.807Z,94833.09
2022-10-21T21:12:30.077Z,94836.66
2022-10-21T21:14:56.647Z,94837.63
2022-10-21T21:17:23.209Z,94832.81
2022-10-21T21:19:50.150Z,94844.16
2022-10-21T21:22:16.964Z,94846.72
2022-10-21T21:24:43.529Z,94846.72
2022-10-21T21:27:10.131Z,94849.06
2022-10-21T21:29:36.725Z,94840.19
2022-10-21T21:32:03.349Z,94846.50
2022-10-21T21:34:29.969Z,94837.81
2022-10-21T21:36:56.558Z,94840.09
2022-10-21T21:39:23.277Z,94849.16
2022-10-21T21:41:50.152Z,94846.56
2022-10-21T21:44:16.702Z,94853.84
2022-10-21T21:46:43.305Z,94867.63
2022-10-21T21:49:10.045Z,94866.81
2022-10-21T21:51:36.703Z,94866.13
2022-10-21T21:54:05.038Z,94868.28
2022-10-21T21:56:31.668Z,94874.56
2022-10-21T21:58:58.560Z,94865.81
2022-10-21T22:01:27.720Z,94871.00
2022-10-21T22:03:54.807Z,94871.00
2022-10-21T22:06:23.469Z,94873.06
2022-10-21T22:08:50.474Z,94855.59
2022-10-21T22:11:20.689Z,94853.19
2022-10-21T22:13:47.566Z,94858.53
2022-10-21T22:16:16.038Z,94858.03
2022-10-21T22:18:43.523Z,94855.31
2022-10-21T22:21:13.237Z,94861.63
2022-10-21T22:23:40.780Z,94858.91
2022-10-21T22:26:08.712Z,94852.09
2022-10-21T22:28:35.528Z,94849.34
2022-10-21T22:31:02.011Z,94839.13
2022-10-21T22:33:29.583Z,94834.28
2022-10-21T22:35:56.279Z,94825.72
2022-10-21T22:38:22.916Z,94829.13
2022-10-21T22:41:12.290Z,94818.09
2022-10-21T22:43:39.408Z,94814.88
2022-10-21T22:46:21.641Z,94819.25
2022-10-21T22:48:52.593Z,94818.59
2022-10-21T22:51:19.204Z,94820.41
2022-10-21T22:53:46.216Z,94810.50
2022-10-21T22:56:15.021Z,94817.47
2022-10-21T22:58:41.575Z,94814.56
2022-10-21T23:01:09.833Z,94810.97
2022-10-21T23:03:37.005Z,94817.00
2022-10-21T23:06:04.025Z,94821.09
2022-10-21T23:08:30.628Z,94821.91
2022-10-21T23:10:58.754Z,94826.44
2022-10-21T23:13:25.327Z,94835.53
2022-10-21T23:15:51.872Z,94831.50
2022-10-21T23:18:18.861Z,94833.44
2022-10-21T23:20:45.679Z,94835.06
2022-10-21T23:23:12.335Z,94834.06
2022-10-21T23:25:38.862Z,94838.44
2022-10-21T23:28:05.507Z,94837.81
2022-10-21T23:30:32.099Z,94840.41
2022-10-21T23:32:58.672Z,94827.28
2022-10-21T23:35:25.314Z,94831.66
2022-10-21T23:37:51.855Z,94830.03
2022-10-21T23:40:18.487Z,94824.72
2022-10-21T23:42:45.102Z,94813.19
2022-10-21T23:45:11.684Z,94822.13
2022-10-21T23:47:40.067Z,94820.16
2022-10-21T23:50:08.490Z,94832.94
2022-10-21T23:52:35.213Z,94831.31
2022-10-21T23:55:01.938Z,94829.25
2022-10-21T23:57:28.483Z,94834.56
2022-10-21T23:59:55.007Z,94833.63
